Terminal Aerodrome Forecast
Issued by NWS Charleston, WV

Current Version | Previous Version | Graphics & Text | Print | Product List | Glossary On
Versions: 1 2 3 4 5 6 7 8 9 10 11 12 13 14 15 16 17 18 19 20 21
000
FTUS41 KRLX 181500 AAA
TAFCRW
TAF AMD
KCRW 181506Z 1815/1912 00000KT P6SM FEW035 FEW300
     FM182000 03006KT P6SM SCT250
     FM190200 VRB03KT P6SM FEW050
     FM190800 12006KT P6SM BKN050=

USA.gov is the U.S. government's official web portal to all federal, state and local government web resources and services.